createdAt,value
2022-11-26T00:00:59.697Z,4.95
2022-11-26T00:03:26.328Z,4.97
2022-11-26T00:05:56.714Z,4.99
2022-11-26T00:08:30.384Z,5.00
2022-11-26T00:10:57.807Z,5.03
2022-11-26T00:13:27.528Z,5.09
2022-11-26T00:15:54.297Z,5.10
2022-11-26T00:18:23.387Z,5.03
2022-11-26T00:20:59.496Z,4.92
2022-11-26T00:23:27.954Z,4.82
2022-11-26T00:26:01.411Z,4.68
2022-11-26T00:28:35.844Z,4.60
2022-11-26T00:31:12.353Z,4.48
2022-11-26T00:33:38.847Z,4.36
2022-11-26T00:36:16.802Z,4.25
2022-11-26T00:38:44.072Z,4.23
2022-11-26T00:41:25.846Z,4.26
2022-11-26T00:43:52.567Z,4.26
2022-11-26T00:46:21.240Z,4.25
2022-11-26T00:48:48.320Z,4.22
2022-11-26T00:51:18.843Z,4.23
2022-11-26T00:53:46.911Z,4.32
2022-11-26T00:56:20.749Z,4.40
2022-11-26T00:58:48.734Z,4.45
2022-11-26T01:01:20.817Z,4.47
2022-11-26T01:03:47.719Z,4.47
2022-11-26T01:06:34.085Z,4.49
2022-11-26T01:09:00.877Z,4.49
2022-11-26T01:11:27.763Z,4.47
2022-11-26T01:13:55.882Z,4.45
2022-11-26T01:16:25.613Z,4.43
2022-11-26T01:18:54.812Z,4.41
2022-11-26T01:21:22.867Z,4.42
2022-11-26T01:23:49.529Z,4.43
2022-11-26T01:26:27.666Z,4.45
2022-11-26T01:28:55.229Z,4.50
2022-11-26T01:31:24.912Z,4.58
2022-11-26T01:33:51.513Z,4.66
2022-11-26T01:36:20.945Z,4.64
2022-11-26T01:38:47.509Z,4.64
2022-11-26T01:41:27.128Z,4.65
2022-11-26T01:43:57.678Z,4.69
2022-11-26T01:46:26.376Z,4.73
2022-11-26T01:48:53.136Z,4.74
2022-11-26T01:51:27.198Z,4.71
2022-11-26T01:54:00.789Z,4.71
2022-11-26T01:56:36.245Z,4.70
2022-11-26T01:59:15.092Z,4.71
2022-11-26T02:01:41.699Z,4.70
2022-11-26T02:04:21.788Z,4.67
2022-11-26T02:06:49.932Z,4.71
2022-11-26T02:09:17.779Z,4.74
2022-11-26T02:11:45.008Z,4.73
2022-11-26T02:14:37.132Z,4.73
2022-11-26T02:17:20.872Z,4.68
2022-11-26T02:20:12.506Z,4.72
2022-11-26T02:23:24.639Z,4.72
2022-11-26T02:26:09.137Z,4.75
2022-11-26T02:28:58.521Z,4.75
2022-11-26T02:31:40.163Z,4.76
2022-11-26T02:34:34.260Z,4.73
2022-11-26T02:37:13.236Z,4.77
2022-11-26T02:39:39.778Z,4.74
2022-11-26T02:42:25.322Z,4.74
2022-11-26T02:44:52.942Z,4.70
2022-11-26T02:47:21.010Z,4.69
2022-11-26T02:49:50.333Z,4.69
2022-11-26T02:52:19.605Z,4.69
2022-11-26T02:54:48.877Z,4.65
2022-11-26T02:57:18.692Z,4.68
2022-11-26T02:59:45.310Z,4.67
2022-11-26T03:02:24.705Z,4.64
2022-11-26T03:04:54.864Z,4.61
2022-11-26T03:07:21.902Z,4.63
2022-11-26T03:09:55.118Z,4.60
2022-11-26T03:12:22.669Z,4.58
2022-11-26T03:14:49.153Z,4.59
2022-11-26T03:17:16.502Z,4.55
2022-11-26T03:19:43.255Z,4.55
2022-11-26T03:22:10.132Z,4.55
2022-11-26T03:24:37.375Z,4.55
2022-11-26T03:27:04.227Z,4.54
2022-11-26T03:29:31.072Z,4.46
2022-11-26T03:31:57.816Z,4.43
2022-11-26T03:34:24.665Z,4.38
2022-11-26T03:36:51.278Z,4.28
2022-11-26T03:39:17.896Z,4.29
2022-11-26T03:41:44.479Z,4.31
2022-11-26T03:44:12.020Z,4.36
2022-11-26T03:46:38.592Z,4.38
2022-11-26T03:49:05.137Z,4.41
2022-11-26T03:51:31.611Z,4.50
2022-11-26T03:53:58.180Z,4.54
2022-11-26T03:56:24.707Z,4.61
2022-11-26T03:58:51.175Z,4.60
2022-11-26T04:01:17.901Z,4.63
2022-11-26T04:03:44.425Z,4.65
2022-11-26T04:06:11.027Z,4.68
2022-11-26T04:08:37.489Z,4.66
2022-11-26T04:11:04.018Z,4.67
2022-11-26T04:13:30.511Z,4.66
2022-11-26T04:15:57.002Z,4.73
2022-11-26T04:18:23.473Z,4.73
2022-11-26T04:20:53.105Z,4.71
2022-11-26T04:23:19.971Z,4.68
2022-11-26T04:25:46.788Z,4.63
2022-11-26T04:28:15.106Z,4.59
2022-11-26T04:30:42.735Z,4.54
2022-11-26T04:33:10.180Z,4.51
2022-11-26T04:35:38.715Z,4.50
2022-11-26T04:38:05.771Z,4.55
2022-11-26T04:40:32.539Z,4.49
2022-11-26T04:42:59.143Z,4.47
2022-11-26T04:45:25.702Z,4.47
2022-11-26T04:47:52.238Z,4.44
2022-11-26T04:50:19.618Z,4.41
2022-11-26T04:52:48.558Z,4.36
2022-11-26T04:55:16.379Z,4.35
2022-11-26T04:57:43.351Z,4.35
2022-11-26T05:00:10.997Z,4.37
2022-11-26T05:02:37.568Z,4.36
2022-11-26T05:05:04.218Z,4.36
2022-11-26T05:07:30.826Z,4.36
2022-11-26T05:09:57.308Z,4.33
2022-11-26T05:12:23.799Z,4.35
2022-11-26T05:14:50.309Z,4.31
2022-11-26T05:17:19.564Z,4.36
2022-11-26T05:19:46.038Z,4.36
2022-11-26T05:22:12.604Z,4.45
2022-11-26T05:24:39.271Z,4.47
2022-11-26T05:27:05.924Z,4.52
2022-11-26T05:29:33.222Z,4.54
2022-11-26T05:31:59.798Z,4.59
2022-11-26T05:34:26.379Z,4.57
2022-11-26T05:36:52.931Z,4.55
2022-11-26T05:39:20.082Z,4.52
2022-11-26T05:41:46.734Z,4.55
2022-11-26T05:44:13.211Z,4.56
2022-11-26T05:46:42.338Z,4.54
2022-11-26T05:49:09.624Z,4.54
2022-11-26T05:51:36.137Z,4.61
2022-11-26T05:54:02.689Z,4.60
2022-11-26T05:56:29.209Z,4.60
2022-11-26T05:58:55.667Z,4.64
2022-11-26T06:01:22.142Z,4.64
2022-11-26T06:03:48.752Z,4.65
2022-11-26T06:06:15.291Z,4.63
2022-11-26T06:08:41.772Z,4.66
2022-11-26T06:11:12.381Z,4.66
2022-11-26T06:13:39.181Z,4.64
2022-11-26T06:16:06.095Z,4.62
2022-11-26T06:18:32.603Z,4.59
2022-11-26T06:21:03.810Z,4.61
2022-11-26T06:23:32.181Z,4.63
2022-11-26T06:25:58.748Z,4.65
2022-11-26T06:28:25.563Z,4.65
2022-11-26T06:30:52.121Z,4.65
2022-11-26T06:33:18.696Z,4.71
2022-11-26T06:35:45.176Z,5.18
2022-11-26T06:38:11.729Z,5.39
2022-11-26T06:40:38.369Z,5.23
2022-11-26T06:43:04.817Z,5.13
2022-11-26T06:45:31.448Z,5.02
2022-11-26T06:47:57.978Z,4.97
2022-11-26T06:50:24.663Z,4.93
2022-11-26T06:52:54.420Z,4.89
2022-11-26T06:55:21.080Z,4.94
2022-11-26T06:57:51.822Z,4.95
2022-11-26T07:00:18.720Z,4.89
2022-11-26T07:02:45.365Z,4.90
2022-11-26T07:05:11.930Z,4.89
2022-11-26T07:07:39.858Z,4.88
2022-11-26T07:10:07.801Z,4.95
2022-11-26T07:12:34.364Z,5.03
2022-11-26T07:15:00.955Z,4.99
2022-11-26T07:17:28.877Z,5.02
2022-11-26T07:19:55.390Z,5.06
2022-11-26T07:22:21.917Z,5.12
2022-11-26T07:24:48.396Z,5.13
2022-11-26T07:27:14.923Z,5.14
2022-11-26T07:29:41.386Z,5.21
2022-11-26T07:32:07.908Z,5.22
2022-11-26T07:34:34.381Z,5.28
2022-11-26T07:37:01.145Z,5.35
2022-11-26T07:39:27.639Z,5.33
2022-11-26T07:41:54.128Z,5.38
2022-11-26T07:44:20.606Z,5.43
2022-11-26T07:46:47.112Z,5.55
2022-11-26T07:49:13.599Z,5.61
2022-11-26T07:51:40.117Z,5.64
2022-11-26T07:54:08.704Z,5.68
2022-11-26T07:56:36.051Z,5.72
2022-11-26T07:59:02.718Z,5.76
2022-11-26T08:01:30.311Z,5.81
2022-11-26T08:03:58.262Z,5.89
2022-11-26T08:06:30.499Z,5.84
2022-11-26T08:08:59.473Z,5.81
2022-11-26T08:11:27.963Z,5.78
2022-11-26T08:13:57.137Z,5.83
2022-11-26T08:16:23.939Z,5.79
2022-11-26T08:18:55.101Z,5.86
2022-11-26T08:21:22.140Z,5.78
2022-11-26T08:23:48.958Z,5.78
2022-11-26T08:26:30.707Z,5.83
2022-11-26T08:29:00.291Z,5.84
2022-11-26T08:31:28.065Z,5.87
2022-11-26T08:33:59.366Z,5.95
2022-11-26T08:36:29.918Z,6.15
2022-11-26T08:38:57.472Z,6.34
2022-11-26T08:41:24.064Z,6.57
2022-11-26T08:44:05.521Z,6.74
2022-11-26T08:46:32.988Z,6.77
2022-11-26T08:48:59.715Z,6.79
2022-11-26T08:51:26.220Z,6.82
2022-11-26T08:53:52.872Z,6.77
2022-11-26T08:56:19.517Z,6.76
2022-11-26T08:58:46.649Z,6.68
2022-11-26T09:01:22.015Z,6.79
2022-11-26T09:03:50.525Z,6.86
2022-11-26T09:06:18.181Z,6.98
2022-11-26T09:09:02.908Z,7.10
2022-11-26T09:11:29.534Z,7.08
2022-11-26T09:13:57.969Z,7.04
2022-11-26T09:16:25.708Z,7.13
2022-11-26T09:18:52.755Z,7.12
2022-11-26T09:21:20.125Z,7.12
2022-11-26T09:23:46.677Z,7.08
2022-11-26T09:26:13.251Z,7.26
2022-11-26T09:28:39.848Z,7.18
2022-11-26T09:31:06.655Z,7.26
2022-11-26T09:33:33.207Z,7.34
2022-11-26T09:36:07.724Z,7.35
2022-11-26T09:38:34.860Z,7.24
2022-11-26T09:41:27.455Z,7.14
2022-11-26T09:44:25.282Z,7.22
2022-11-26T09:47:13.316Z,7.31
2022-11-26T09:49:54.882Z,7.33
2022-11-26T09:52:25.283Z,7.33
2022-11-26T09:55:01.503Z,7.37
2022-11-26T09:57:56.721Z,7.37
2022-11-26T10:00:27.336Z,7.39
2022-11-26T10:02:55.829Z,7.44
2022-11-26T10:05:28.801Z,7.53
2022-11-26T10:08:01.263Z,7.64
2022-11-26T10:10:49.076Z,7.77
2022-11-26T10:13:28.520Z,7.99
2022-11-26T10:16:06.849Z,8.19
2022-11-26T10:18:36.546Z,8.13
2022-11-26T10:21:32.429Z,8.00
2022-11-26T10:24:15.936Z,8.04
2022-11-26T10:26:43.169Z,7.94
2022-11-26T10:29:25.644Z,7.85
2022-11-26T10:32:00.423Z,7.84
2022-11-26T10:34:43.008Z,7.86
2022-11-26T10:37:09.819Z,7.83
2022-11-26T10:39:36.330Z,7.77
2022-11-26T10:42:22.023Z,7.77
2022-11-26T10:44:50.513Z,7.89
2022-11-26T10:47:31.483Z,7.89
2022-11-26T10:50:07.286Z,7.79
2022-11-26T10:52:46.435Z,7.70
2022-11-26T10:55:27.590Z,7.77
2022-11-26T10:58:02.930Z,7.93
2022-11-26T11:00:37.895Z,7.85
2022-11-26T11:03:15.033Z,7.79
2022-11-26T11:05:44.042Z,7.91
2022-11-26T11:08:31.089Z,8.14
2022-11-26T11:11:03.857Z,8.25
2022-11-26T11:13:42.040Z,8.10
2022-11-26T11:16:09.896Z,8.17
2022-11-26T11:18:37.058Z,8.23
2022-11-26T11:21:05.173Z,8.45
2022-11-26T11:24:06.984Z,8.59
2022-11-26T11:26:25.753Z,8.75
2022-11-26T11:28:54.951Z,8.69
2022-11-26T11:31:23.924Z,8.80
2022-11-26T11:33:52.602Z,8.90
2022-11-26T11:36:26.020Z,9.04
2022-11-26T11:38:58.001Z,9.21
2022-11-26T11:41:45.411Z,9.20
2022-11-26T11:44:26.285Z,9.04
2022-11-26T11:47:23.462Z,9.08
2022-11-26T11:50:29.324Z,9.07
2022-11-26T11:53:33.670Z,8.84
2022-11-26T11:56:21.928Z,8.67
2022-11-26T11:59:07.048Z,8.50
2022-11-26T12:01:48.794Z,8.37
2022-11-26T12:04:54.004Z,8.43
2022-11-26T12:07:40.636Z,8.66
2022-11-26T12:10:10.224Z,8.80
2022-11-26T12:12:42.303Z,8.90
2022-11-26T12:15:18.252Z,9.07
2022-11-26T12:17:50.633Z,9.19
2022-11-26T12:20:21.130Z,9.16
2022-11-26T12:23:33.165Z,9.11
2022-11-26T12:26:02.508Z,8.85
2022-11-26T12:28:34.209Z,8.57
2022-11-26T12:31:05.792Z,8.36
2022-11-26T12:33:35.853Z,8.14
2022-11-26T12:36:14.697Z,8.03
2022-11-26T12:38:47.689Z,8.02
2022-11-26T12:41:22.133Z,8.12
2022-11-26T12:44:24.196Z,8.16
2022-11-26T12:47:04.576Z,8.26
2022-11-26T12:49:43.521Z,8.40
2022-11-26T12:52:18.694Z,8.40
2022-11-26T12:54:54.263Z,8.44
2022-11-26T12:57:23.520Z,8.56
2022-11-26T13:00:15.227Z,8.58
2022-11-26T13:02:48.881Z,8.54
2022-11-26T13:05:20.443Z,8.63
2022-11-26T13:08:11.633Z,8.63
2022-11-26T13:11:08.826Z,8.73
2022-11-26T13:13:36.507Z,8.63
2022-11-26T13:16:12.998Z,8.35
2022-11-26T13:18:46.878Z,8.39
2022-11-26T13:21:48.648Z,8.36
2022-11-26T13:24:40.056Z,8.38
2022-11-26T13:27:09.496Z,8.32
2022-11-26T13:29:59.256Z,8.26
2022-11-26T13:32:34.914Z,8.20
2022-11-26T13:35:20.190Z,8.37
2022-11-26T13:38:11.422Z,8.60
2022-11-26T13:40:54.734Z,9.01
2022-11-26T13:44:12.626Z,8.94
2022-11-26T13:46:48.340Z,8.90
2022-11-26T13:49:25.922Z,8.71
2022-11-26T13:52:10.309Z,8.52
2022-11-26T13:54:48.733Z,8.43
2022-11-26T13:57:20.984Z,8.35
2022-11-26T13:59:50.355Z,8.24
2022-11-26T14:02:38.450Z,8.11
2022-11-26T14:05:08.624Z,8.00
2022-11-26T14:07:35.390Z,8.03
2022-11-26T14:10:04.380Z,7.88
2022-11-26T14:13:02.112Z,7.61
2022-11-26T14:15:40.624Z,7.57
2022-11-26T14:18:14.824Z,7.55
2022-11-26T14:21:03.970Z,7.40
2022-11-26T14:23:43.776Z,7.35
2022-11-26T14:26:15.485Z,7.19
2022-11-26T14:28:42.035Z,7.17
2022-11-26T14:31:21.943Z,7.24
2022-11-26T14:33:51.570Z,7.18
2022-11-26T14:36:26.532Z,7.14
2022-11-26T14:39:13.371Z,7.05
2022-11-26T14:41:42.675Z,7.04
2022-11-26T14:44:12.781Z,6.95
2022-11-26T14:46:40.895Z,6.82
2022-11-26T14:49:26.150Z,6.70
2022-11-26T14:51:53.831Z,6.57
2022-11-26T14:54:35.377Z,6.48
2022-11-26T14:57:14.347Z,6.60
2022-11-26T15:00:05.545Z,6.54
2022-11-26T15:02:32.183Z,6.39
2022-11-26T15:05:12.513Z,6.28
2022-11-26T15:07:39.115Z,6.16
2022-11-26T15:10:15.731Z,6.06
2022-11-26T15:12:43.995Z,5.94
2022-11-26T15:15:18.282Z,5.79
2022-11-26T15:17:49.262Z,5.68
2022-11-26T15:20:18.237Z,5.55
2022-11-26T15:22:57.294Z,5.42
2022-11-26T15:25:28.043Z,5.28
2022-11-26T15:27:54.517Z,5.15
2022-11-26T15:30:24.424Z,5.03
2022-11-26T15:33:01.228Z,4.83
2022-11-26T15:35:28.860Z,4.69
2022-11-26T15:37:55.410Z,4.53
2022-11-26T15:40:34.163Z,4.41
2022-11-26T15:43:04.213Z,4.18
2022-11-26T15:45:39.467Z,3.91
2022-11-26T15:48:27.074Z,3.71
2022-11-26T15:50:59.757Z,3.50
2022-11-26T15:53:28.975Z,3.31
2022-11-26T15:55:56.108Z,3.22
2022-11-26T15:58:28.631Z,3.12
2022-11-26T16:00:58.550Z,3.10
2022-11-26T16:03:48.244Z,3.10
2022-11-26T16:06:34.531Z,3.04
2022-11-26T16:09:27.859Z,2.82
2022-11-26T16:12:00.117Z,2.71
2022-11-26T16:14:31.791Z,2.58
2022-11-26T16:17:06.582Z,2.47
2022-11-26T16:19:35.751Z,2.34
2022-11-26T16:22:04.298Z,2.32
2022-11-26T16:24:42.566Z,2.23
2022-11-26T16:27:18.039Z,2.12
2022-11-26T16:29:45.284Z,2.08
2022-11-26T16:32:13.746Z,1.98
2022-11-26T16:34:40.467Z,1.97
2022-11-26T16:37:31.650Z,1.88
2022-11-26T16:40:04.412Z,1.81
2022-11-26T16:42:32.605Z,1.81
2022-11-26T16:47:52.943Z,1.57
2022-11-26T16:50:22.227Z,1.66
2022-11-26T16:52:49.074Z,1.61
2022-11-26T16:55:19.142Z,1.57
2022-11-26T16:57:49.733Z,1.48
2022-11-26T17:00:19.057Z,1.40
2022-11-26T17:02:46.409Z,1.41
2022-11-26T17:05:13.138Z,1.32
2022-11-26T17:07:47.210Z,1.30
2022-11-26T17:10:21.963Z,1.26
2022-11-26T17:12:49.738Z,1.20
2022-11-26T17:15:16.900Z,1.30
2022-11-26T17:17:43.761Z,1.22
2022-11-26T17:20:22.430Z,1.05
2022-11-26T17:22:49.289Z,1.17
2022-11-26T17:25:15.886Z,1.05
2022-11-26T17:27:42.698Z,1.04
2022-11-26T17:30:27.174Z,0.90
2022-11-26T17:32:53.728Z,0.89
2022-11-26T17:35:20.230Z,0.73
2022-11-26T17:37:46.926Z,0.62
2022-11-26T17:40:21.818Z,0.58
2022-11-26T17:42:48.879Z,0.37
2022-11-26T17:45:16.296Z,0.35
2022-11-26T17:47:43.282Z,0.27
2022-11-26T17:50:24.272Z,0.39
2022-11-26T17:52:51.247Z,0.53
2022-11-26T17:55:18.819Z,0.59
2022-11-26T17:57:45.439Z,0.58
2022-11-26T18:00:17.723Z,0.59
2022-11-26T18:02:46.221Z,0.49
2022-11-26T18:05:13.771Z,0.37
2022-11-26T18:07:40.791Z,0.34
2022-11-26T18:10:11.447Z,0.24
2022-11-26T18:12:38.558Z,0.15
2022-11-26T18:15:05.764Z,0.06
2022-11-26T18:17:32.892Z,-0.08
2022-11-26T18:19:59.543Z,-0.08
2022-11-26T18:22:27.479Z,-0.09
2022-11-26T18:24:56.775Z,-0.09
2022-11-26T18:27:29.173Z,-0.16
2022-11-26T18:29:55.739Z,-0.21
2022-11-26T18:32:22.438Z,-0.32
2022-11-26T18:34:50.504Z,-0.28
2022-11-26T18:37:17.626Z,-0.32
2022-11-26T18:39:44.146Z,-0.35
2022-11-26T18:44:57.787Z,-0.35
2022-11-26T18:47:24.345Z,-0.35
2022-11-26T18:49:51.094Z,-0.29
2022-11-26T18:52:17.822Z,-0.22
2022-11-26T18:54:44.437Z,-0.23
2022-11-26T18:57:10.924Z,-0.24
2022-11-26T18:59:37.956Z,-0.27
2022-11-26T19:02:04.917Z,-0.33
2022-11-26T19:04:31.450Z,-0.34
2022-11-26T19:06:57.953Z,-0.31
2022-11-26T19:09:24.918Z,-0.37
2022-11-26T19:11:54.245Z,-0.45
2022-11-26T19:14:21.281Z,-0.42
2022-11-26T19:16:50.670Z,-0.36
2022-11-26T19:19:17.803Z,-0.32
2022-11-26T19:21:44.392Z,-0.24
2022-11-26T19:24:11.863Z,-0.38
2022-11-26T19:26:41.165Z,-0.52
2022-11-26T19:29:09.098Z,-0.46
2022-11-26T19:31:38.890Z,-0.42
2022-11-26T19:34:08.929Z,-0.39
2022-11-26T19:36:36.798Z,-0.46
2022-11-26T19:39:04.291Z,-0.48
2022-11-26T19:41:30.846Z,-0.54
2022-11-26T19:44:00.534Z,-0.48
2022-11-26T19:46:27.549Z,-0.48
2022-11-26T19:48:55.653Z,-0.41
2022-11-26T19:51:24.475Z,-0.37
2022-11-26T19:53:52.926Z,-0.38
2022-11-26T19:56:22.896Z,-0.51
2022-11-26T19:58:51.420Z,-0.47
2022-11-26T20:01:18.153Z,-0.57
2022-11-26T20:03:45.016Z,-0.60
2022-11-26T20:06:20.939Z,-0.70
2022-11-26T20:08:48.766Z,-0.75
2022-11-26T20:11:16.915Z,-0.78
2022-11-26T20:13:45.277Z,-0.79
2022-11-26T20:16:15.665Z,-0.85
2022-11-26T20:18:42.268Z,-0.80
2022-11-26T20:21:11.498Z,-0.80
2022-11-26T20:23:38.547Z,-0.75
2022-11-26T20:26:17.166Z,-0.67
2022-11-26T20:28:44.525Z,-0.57
2022-11-26T20:31:11.478Z,-0.50
2022-11-26T20:33:38.337Z,-0.48
2022-11-26T20:36:07.288Z,-0.41
2022-11-26T20:38:34.450Z,-0.39
2022-11-26T20:41:01.011Z,-0.38
2022-11-26T20:43:27.499Z,-0.41
2022-11-26T20:46:02.339Z,-0.43
2022-11-26T20:48:30.267Z,-0.43
2022-11-26T20:51:02.586Z,-0.46
2022-11-26T20:53:29.069Z,-0.62
2022-11-26T20:55:56.554Z,-0.69
2022-11-26T20:58:24.564Z,-0.82
2022-11-26T21:00:54.051Z,-0.87
2022-11-26T21:03:25.769Z,-0.86
2022-11-26T21:05:52.543Z,-0.95
2022-11-26T21:08:20.178Z,-0.99
2022-11-26T21:10:46.747Z,-1.08
2022-11-26T21:13:19.616Z,-0.98
2022-11-26T21:15:49.472Z,-1.09
2022-11-26T21:18:16.349Z,-1.19
2022-11-26T21:20:43.998Z,-1.26
2022-11-26T21:23:12.002Z,-1.26
2022-11-26T21:25:43.330Z,-1.32
2022-11-26T21:28:11.355Z,-1.34
2022-11-26T21:30:38.481Z,-1.34
2022-11-26T21:33:09.306Z,-1.41
2022-11-26T21:35:37.088Z,-1.41
2022-11-26T21:38:04.658Z,-1.31
2022-11-26T21:40:31.511Z,-1.35
2022-11-26T21:42:58.265Z,-1.33
2022-11-26T21:45:25.255Z,-1.30
2022-11-26T21:47:52.565Z,-1.25
2022-11-26T21:50:19.719Z,-1.25
2022-11-26T21:52:46.719Z,-1.30
2022-11-26T21:55:13.281Z,-1.36
2022-11-26T21:57:39.858Z,-1.35
2022-11-26T22:00:07.031Z,-1.39
2022-11-26T22:02:33.596Z,-1.39
2022-11-26T22:05:00.188Z,-1.46
2022-11-26T22:07:26.878Z,-1.48
2022-11-26T22:09:53.475Z,-1.54
2022-11-26T22:12:19.951Z,-1.57
2022-11-26T22:14:47.019Z,-1.65
2022-11-26T22:17:13.525Z,-1.62
2022-11-26T22:19:40.096Z,-1.63
2022-11-26T22:22:06.744Z,-1.58
2022-11-26T22:24:33.291Z,-1.61
2022-11-26T22:26:59.820Z,-1.68
2022-11-26T22:29:26.380Z,-1.69
2022-11-26T22:31:52.941Z,-1.77
2022-11-26T22:34:24.600Z,-1.85
2022-11-26T22:36:51.394Z,-1.92
2022-11-26T22:39:18.878Z,-1.99
2022-11-26T22:41:46.790Z,-1.92
2022-11-26T22:44:14.110Z,-1.87
2022-11-26T22:46:40.652Z,-1.87
2022-11-26T22:49:10.707Z,-1.79
2022-11-26T22:51:37.297Z,-1.75
2022-11-26T22:54:07.100Z,-1.70
2022-11-26T22:56:37.660Z,-1.62
2022-11-26T22:59:05.984Z,-1.60
2022-11-26T23:01:34.167Z,-1.55
2022-11-26T23:04:03.003Z,-1.54
2022-11-26T23:06:31.193Z,-1.60
2022-11-26T23:08:59.209Z,-1.57
2022-11-26T23:11:28.967Z,-1.55
2022-11-26T23:13:56.055Z,-1.54
2022-11-26T23:16:25.716Z,-1.51
2022-11-26T23:18:54.985Z,-1.42
2022-11-26T23:21:24.668Z,-1.39
2022-11-26T23:23:51.855Z,-1.34
2022-11-26T23:26:26.790Z,-1.28
2022-11-26T23:28:54.693Z,-1.25
2022-11-26T23:31:24.449Z,-1.26
2022-11-26T23:33:51.646Z,-1.28
2022-11-26T23:36:19.110Z,-1.26
2022-11-26T23:38:46.383Z,-1.29
2022-11-26T23:41:12.995Z,-1.30
2022-11-26T23:43:40.039Z,-1.27
2022-11-26T23:46:13.656Z,-1.24
2022-11-26T23:48:40.248Z,-1.11
2022-11-26T23:51:08.687Z,-1.07
2022-11-26T23:53:40.345Z,-1.04
2022-11-26T23:56:10.897Z,-0.91
2022-11-26T23:58:37.604Z,-0.91
